Saint Helena Island, SC (29920)

1:33 PM EDT on July 28, 2016 (GMT -0400)
Distant Island | | Change Station

Elev 15 ft 32.38 °N, 80.63 °W | Updated 17 seconds ago

Clear
Clear
91.6 °F
Feels Like 96 °F
N
7.4
Wind Variable Wind from WSW
Gusts 9.8 mph

Today
High -- | Low -- °F
--% Chance of Precip.
Yesterday
High -- | Low -- °F
Precip. -- in
Pressure 30.00 in
Visibility 7.0 miles
Clouds Clear
Heat Index 96 °F
Dew Point 68 °F
Humidity 46%
Rainfall 0.00 in
Snow Depth Not available.
6:34 AM 8:22 PM
Waning Crescent, 30% visible
METAR KARW 281715Z AUTO 24007KT 7SM CLR 35/22 A3000 RMK AO2
Pressure 30.00 in
Visibility 7.0 miles
Clouds Clear
Heat Index 96 °F
Dew Point 68 °F
Humidity 46%
Rainfall 0.00 in
Snow Depth Not available.
6:34 AM 8:22 PM
Waning Crescent, 30% visible
METAR KARW 281715Z AUTO 24007KT 7SM CLR 35/22 A3000 RMK AO2

10-Day Weather Forecast

Almanac

Astronomy

Jul. 28, 2016 Rise Set
Actual Time
Civil Twilight
Nautical Twilight
Astronomical Twilight
Moon
Length of Visible Light
Length of Day
Tomorrow will be .
, % of the Moon is Illuminated

Today's Extremes

State Highs State Lows

Community

WunderPhotos

Upload Photos

1,928,163 photos uploaded!

WunderBlog® & News

Nearby

Air Quality

  Air Quality AQ Index Pollutant
Not available.

Snow Depth

Station Depth Elevation

Earthquake Activity

City Distance Mag. Time & Date
Minimum magnitude displayed is 2.5.

Coastal Water Temperatures

Place Temperature

Stations

Nearby Weather Stations

Station Location Temp. Windchill Dew Point Humidity Wind Precip. Elev Updated Type
                   

Watches & Warnings

There are currently no watches in effect.